Time;durP1;ratioP1;P1;durP2;ratioP2;P2;SDS_P1;SDS_P2;PMS_P1;PMS_P2;Temp;Humidity;BMP_temperature;BMP_pressure;BME280_temperature;BME280_humidity;BME280_pressure;Samples;Min_cycle;Max_cycle;Signal;HPM_P1;HPM_P2
2022/07/20 00:01:17;;;;;;;22.23;18.45;;;;;;;23.95;46.34;93798.53;5050755;28;20037;-87
2022/07/20 00:03:45;;;;;;;21.48;16.85;;;;;;;23.93;46.25;93801.06;5017971;28;20381;-89
2022/07/20 00:06:11;;;;;;;18.95;15.80;;;;;;;23.92;46.29;93789.28;5034863;28;20060;-88
2022/07/20 00:11:21;;;;;;;19.23;15.82;;;;;;;23.90;46.29;93783.56;5053068;28;20059;-89
2022/07/20 00:13:52;;;;;;;19.20;15.82;;;;;;;23.95;46.26;93789.50;5035084;28;20032;-89
2022/07/20 00:16:18;;;;;;;19.45;15.85;;;;;;;23.92;46.43;93785.78;5013407;28;20570;-88
2022/07/20 00:18:44;;;;;;;20.20;15.85;;;;;;;23.90;46.19;93785.59;5024186;28;20044;-89
2022/07/20 00:21:09;;;;;;;21.38;17.17;;;;;;;23.91;46.23;93782.28;5047645;28;20041;-88
2022/07/20 00:23:34;;;;;;;20.13;16.10;;;;;;;23.90;46.17;93780.06;5033938;28;20480;-88
2022/07/20 00:26:00;;;;;;;18.73;16.10;;;;;;;23.90;46.14;93780.81;5035195;28;20051;-89
2022/07/20 00:28:25;;;;;;;17.75;15.23;;;;;;;23.91;46.18;93776.03;5050766;28;20447;-88
2022/07/20 00:30:51;;;;;;;20.27;15.48;;;;;;;23.90;46.28;93778.03;5034374;28;20530;-89
2022/07/20 00:33:16;;;;;;;19.58;15.32;;;;;;;23.92;46.06;93771.97;5016964;28;20047;-88
2022/07/20 00:35:41;;;;;;;18.40;14.98;;;;;;;23.89;46.33;93762.00;5069044;28;20048;-88
2022/07/20 00:38:07;;;;;;;22.98;16.80;;;;;;;23.89;46.30;93767.53;5034073;28;20040;-87
2022/07/20 00:40:32;;;;;;;17.13;15.15;;;;;;;23.88;46.05;93766.03;5051040;28;20094;-87
2022/07/20 00:42:58;;;;;;;19.33;15.88;;;;;;;23.91;46.30;93762.22;5016865;28;20060;-88
2022/07/20 00:45:23;;;;;;;18.77;15.60;;;;;;;23.91;45.99;93764.97;5026619;28;20049;-88
2022/07/20 00:47:51;;;;;;;17.15;14.75;;;;;;;23.89;46.26;93770.28;5002987;28;20111;-89
2022/07/20 00:50:17;;;;;;;18.40;14.68;;;;;;;23.87;46.24;93773.59;5015091;28;20047;-87
2022/07/20 00:52:42;;;;;;;20.02;15.77;;;;;;;23.87;46.26;93768.06;5014887;28;20392;-89
2022/07/20 00:55:07;;;;;;;19.25;15.68;;;;;;;23.86;46.32;93763.81;4997440;28;20037;-88
2022/07/20 00:57:33;;;;;;;17.17;14.27;;;;;;;23.88;46.25;93763.28;5014395;28;20060;-89
2022/07/20 00:59:59;;;;;;;18.63;15.00;;;;;;;23.87;46.39;93759.03;5014819;28;20036;-88
2022/07/20 01:02:24;;;;;;;17.45;15.32;;;;;;;23.86;46.08;93758.31;5014184;28;20527;-88
2022/07/20 01:04:49;;;;;;;18.45;15.18;;;;;;;23.86;46.25;93761.06;5014221;28;20153;-88
2022/07/20 01:07:15;;;;;;;20.88;14.68;;;;;;;23.86;46.28;93771.38;5030150;28;20511;-88
2022/07/20 01:09:41;;;;;;;18.77;15.10;;;;;;;23.87;46.21;93762.53;5014346;28;20495;-87
2022/07/20 01:12:08;;;;;;;18.27;13.82;;;;;;;23.84;46.10;93771.91;5013961;28;20450;-87
2022/07/20 01:14:34;;;;;;;15.98;13.98;;;;;;;23.86;46.26;93765.84;5013983;28;20074;-88
2022/07/20 01:16:59;;;;;;;19.25;14.88;;;;;;;23.86;46.22;93766.59;5010981;28;20060;-88
2022/07/20 01:19:25;;;;;;;17.52;14.13;;;;;;;23.85;46.22;93759.56;5036950;28;20032;-87
2022/07/20 01:21:50;;;;;;;17.52;14.32;;;;;;;23.86;46.24;93757.56;5030291;28;20045;-88
2022/07/20 01:24:16;;;;;;;17.27;14.15;;;;;;;23.86;46.12;93758.31;5013067;28;20171;-88
2022/07/20 01:26:43;;;;;;;17.92;14.10;;;;;;;23.86;46.30;93761.06;5048286;28;20041;-87
2022/07/20 01:29:09;;;;;;;16.42;14.52;;;;;;;23.84;46.21;93755.34;5030415;28;20029;-87
2022/07/20 01:31:34;;;;;;;17.67;14.23;;;;;;;23.82;46.24;93752.38;5014034;28;20052;-87
2022/07/20 01:34:00;;;;;;;17.48;13.35;;;;;;;23.86;45.97;93755.53;5013796;28;20048;-88
2022/07/20 01:36:25;;;;;;;18.00;14.43;;;;;;;23.84;46.17;93752.56;5013747;28;20043;-88
2022/07/20 01:38:52;;;;;;;17.45;14.00;;;;;;;23.84;46.10;93746.31;5048675;28;20045;-89
2022/07/20 01:41:17;;;;;;;19.63;14.68;;;;;;;23.82;46.11;93741.31;5029375;28;20128;-88
2022/07/20 01:43:42;;;;;;;16.27;13.45;;;;;;;23.82;46.15;93737.81;5023258;28;20040;-88
2022/07/20 01:46:08;;;;;;;17.10;13.18;;;;;;;23.84;46.23;93743.56;5010223;28;20049;-87
2022/07/20 01:48:33;;;;;;;16.38;13.35;;;;;;;23.82;46.16;93740.59;5033625;28;20044;-88
2022/07/20 01:50:59;;;;;;;15.27;13.00;;;;;;;23.83;46.26;93733.78;5045316;28;20041;-87
2022/07/20 01:53:24;;;;;;;17.42;13.93;;;;;;;23.82;46.22;93733.03;5012354;28;20462;-88
2022/07/20 01:55:51;;;;;;;17.00;13.02;;;;;;;23.81;46.20;93728.81;5030340;28;20574;-87
2022/07/20 01:58:17;;;;;;;17.35;13.57;;;;;;;23.80;46.19;93729.38;5007880;28;20078;-87
2022/07/20 02:00:42;;;;;;;15.57;12.85;;;;;;;23.81;46.00;93726.06;4992428;28;20033;-87
2022/07/20 02:03:08;;;;;;;18.05;14.30;;;;;;;23.81;46.17;93722.56;5009611;28;20030;-88
2022/07/20 02:05:34;;;;;;;15.68;13.18;;;;;;;23.80;46.03;93723.84;5047586;28;20396;-87
2022/07/20 02:07:59;;;;;;;15.00;13.35;;;;;;;23.81;46.38;93725.31;5013918;28;20033;-88
2022/07/20 02:10:25;;;;;;;15.38;13.00;;;;;;;23.80;46.22;93719.06;5029070;28;20036;-88
2022/07/20 02:12:50;;;;;;;15.57;13.27;;;;;;;23.82;46.11;93724.75;4997218;28;20037;-86
2022/07/20 02:16:14;;;;;;;16.13;13.85;;;;;;;23.80;46.27;93726.59;5028729;28;20051;-88
2022/07/20 02:18:08;;;;;;;16.13;13.43;;;;;;;23.79;46.25;93719.59;5013017;28;20034;-89
2022/07/20 02:20:33;;;;;;;16.38;13.10;;;;;;;23.79;46.34;93719.59;5020288;28;20033;-88
2022/07/20 02:22:59;;;;;;;16.73;13.20;;;;;;;23.78;46.14;93724.38;5046139;28;20094;-88
2022/07/20 02:25:24;;;;;;;15.63;13.00;;;;;;;23.77;46.18;93722.91;4996641;28;20422;-88
2022/07/20 02:27:50;;;;;;;15.30;12.57;;;;;;;23.80;46.22;93718.31;5029782;28;20036;-88
2022/07/20 02:30:15;;;;;;;13.52;11.85;;;;;;;23.77;46.17;93722.91;5012863;28;20484;-88
2022/07/20 02:32:41;;;;;;;17.45;13.05;;;;;;;23.78;46.08;93712.59;5013727;28;20052;-88
2022/07/20 02:35:07;;;;;;;16.58;14.57;;;;;;;23.78;46.06;93707.81;5028967;28;20049;-89
2022/07/20 02:37:32;;;;;;;14.05;11.70;;;;;;;23.78;46.11;93710.56;5013389;28;20056;-87
2022/07/20 02:39:57;;;;;;;14.45;11.88;;;;;;;23.77;46.02;93714.63;5030092;28;20045;-88
2022/07/20 02:42:23;;;;;;;14.85;12.68;;;;;;;23.78;46.35;93712.59;5000974;28;20029;-89
2022/07/20 02:44:48;;;;;;;15.18;12.23;;;;;;;23.79;46.30;93716.84;5049233;28;20041;-89
2022/07/20 02:47:14;;;;;;;15.38;12.77;;;;;;;23.78;46.07;93709.84;5015722;28;20052;-88
2022/07/20 02:49:39;;;;;;;16.27;13.52;;;;;;;23.77;46.30;93708.34;5067581;28;20036;-88
2022/07/20 02:52:04;;;;;;;15.07;12.50;;;;;;;23.75;46.44;93710.91;5033154;28;20438;-87
2022/07/20 02:54:30;;;;;;;15.00;12.73;;;;;;;23.77;46.10;93711.84;5052380;28;20044;-87
2022/07/20 02:56:55;;;;;;;15.95;12.75;;;;;;;23.75;46.39;93714.41;5032734;28;20092;-87
2022/07/20 02:59:21;;;;;;;15.30;13.02;;;;;;;23.76;46.19;93712.38;5015226;28;20451;-88
2022/07/20 03:01:46;;;;;;;14.02;12.13;;;;;;;23.76;46.11;93715.16;5032970;28;20063;-88
2022/07/20 03:04:11;;;;;;;14.07;12.27;;;;;;;23.75;46.25;93708.16;5016013;28;20094;-87
2022/07/20 03:06:37;;;;;;;16.65;12.48;;;;;;;23.74;46.02;93710.16;5032960;28;20044;-87
2022/07/20 03:09:02;;;;;;;14.38;12.38;;;;;;;23.75;46.22;93706.13;5016714;28;20099;-87
2022/07/20 03:11:28;;;;;;;15.07;12.70;;;;;;;23.74;46.04;93709.44;5016200;28;20476;-88
2022/07/20 03:13:53;;;;;;;12.25;10.95;;;;;;;23.76;46.14;93713.13;4999641;28;20476;-86
2022/07/20 03:16:19;;;;;;;16.25;12.40;;;;;;;23.74;46.22;93704.66;5015299;28;20041;-88
2022/07/20 03:18:44;;;;;;;13.27;11.60;;;;;;;23.75;46.13;93705.38;5009890;28;20037;-87
2022/07/20 03:21:09;;;;;;;13.15;11.55;;;;;;;23.74;46.38;93701.88;5032524;28;20102;-88
2022/07/20 03:23:35;;;;;;;15.85;12.75;;;;;;;23.74;46.13;93703.91;5053032;28;20037;-87
2022/07/20 03:26:00;;;;;;;14.00;11.63;;;;;;;23.76;46.03;93696.56;5052753;28;20032;-89
2022/07/20 03:28:26;;;;;;;16.65;12.13;;;;;;;23.76;46.25;93701.34;5059170;28;20512;-87
2022/07/20 03:30:51;;;;;;;14.13;11.52;;;;;;;23.74;46.06;93704.66;5032997;28;20045;-89
2022/07/20 03:33:16;;;;;;;13.32;11.45;;;;;;;23.73;45.92;93707.94;5015444;28;20037;-88
2022/07/20 03:35:42;;;;;;;12.82;10.90;;;;;;;23.73;46.35;93705.94;5032785;28;20029;-88
2022/07/20 03:38:07;;;;;;;13.95;11.10;;;;;;;23.74;46.55;93712.94;5031898;28;20384;-87
2022/07/20 03:40:33;;;;;;;20.02;10.38;;;;;;;23.72;45.84;93715.47;5032546;28;20068;-87
2022/07/20 03:42:58;;;;;;;14.38;9.85;;;;;;;23.70;45.94;93711.78;4992770;28;20099;-87
2022/07/20 03:45:26;;;;;;;11.38;7.32;;;;;;;23.71;44.64;93711.25;5015994;28;20455;-92
2022/07/20 03:47:51;;;;;;;10.02;6.05;;;;;;;23.76;42.99;93704.84;5014587;28;20040;-91
2022/07/20 03:50:16;;;;;;;6.60;6.00;;;;;;;23.74;41.09;93706.66;5036704;28;20041;-92
2022/07/20 03:52:42;;;;;;;8.68;6.00;;;;;;;23.75;41.17;93711.66;5054848;28;20036;-88
2022/07/20 03:55:08;;;;;;;76.13;65.25;;;;;;;23.76;40.58;93713.13;5036922;28;20029;-90
2022/07/20 03:57:33;;;;;;;10.60;8.27;;;;;;;23.75;39.86;93711.66;5035453;28;20028;-90
2022/07/20 03:59:59;;;;;;;13.18;9.75;;;;;;;23.72;40.11;93709.97;5030632;28;20041;-86
2022/07/20 04:02:24;;;;;;;5.80;5.20;;;;;;;23.71;39.66;93711.25;5015387;28;20038;-91
2022/07/20 04:04:49;;;;;;;7.88;4.85;;;;;;;23.71;39.19;93702.97;5016383;28;20059;-90
2022/07/20 04:07:15;;;;;;;6.97;5.30;;;;;;;23.72;39.01;93714.75;5014065;28;20036;-86
2022/07/20 04:09:43;;;;;;;6.10;4.80;;;;;;;23.79;38.92;93706.53;5005010;28;20048;-89
2022/07/20 04:12:12;;;;;;;11.90;5.28;;;;;;;23.77;38.49;93711.13;4995493;28;20042;-89
2022/07/20 04:14:37;;;;;;;15.93;6.65;;;;;;;23.75;38.47;93710.91;5003072;28;20049;-88
2022/07/20 04:17:03;;;;;;;11.32;5.60;;;;;;;23.74;38.86;93709.44;5002347;28;20506;-90
2022/07/20 04:19:28;;;;;;;86.43;77.78;;;;;;;23.66;38.21;93714.13;4997491;28;20052;-89
2022/07/20 04:21:58;;;;;;;7.45;5.70;;;;;;;23.74;38.16;93720.47;5014295;28;20041;-91
2022/07/20 04:24:24;;;;;;;7.70;5.47;;;;;;;23.69;38.22;93708.28;4994135;28;20491;-89
2022/07/20 04:26:50;;;;;;;8.23;4.53;;;;;;;23.65;38.09;93715.41;4996570;28;20096;-88
2022/07/20 04:29:15;;;;;;;13.98;5.57;;;;;;;23.68;39.27;93708.81;5017323;28;20033;-90
2022/07/20 04:31:41;;;;;;;8.55;3.47;;;;;;;23.62;38.20;93714.47;5006195;28;20037;-87
2022/07/20 04:34:06;;;;;;;88.88;80.78;;;;;;;23.60;38.33;93708.03;5034896;28;20030;-93
2022/07/20 04:36:32;;;;;;;35.33;31.95;;;;;;;23.63;38.44;93710.41;5001913;28;20055;-90
2022/07/20 04:38:57;;;;;;;9.95;5.03;;;;;;;23.56;38.36;93711.84;5003027;28;20044;-88
2022/07/20 04:41:23;;;;;;;10.35;3.58;;;;;;;23.66;38.86;93708.59;5003326;28;20034;-86
2022/07/20 04:43:48;;;;;;;7.57;3.80;;;;;;;23.68;38.35;93712.31;5039905;28;20044;-89
2022/07/20 04:46:17;;;;;;;12.18;5.03;;;;;;;23.61;38.39;93718.50;4995344;28;20399;-91
2022/07/20 04:48:42;;;;;;;15.15;6.10;;;;;;;23.64;38.31;93709.16;5048806;28;20384;-91
2022/07/20 04:51:08;;;;;;;23.60;6.03;;;;;;;23.61;38.47;93721.25;5018004;28;20488;-93
2022/07/20 04:53:35;;;;;;;29.55;8.15;;;;;;;23.65;38.50;93716.16;5009573;28;20045;-93
2022/07/20 04:56:01;;;;;;;136.73;18.85;;;;;;;23.67;38.65;93712.84;4995764;28;20431;-88
2022/07/20 04:58:31;;;;;;;112.90;13.45;;;;;;;23.69;38.41;93711.03;5018684;28;20042;-95
2022/07/20 05:01:09;;;;;;;82.75;13.98;;;;;;;23.71;38.71;93716.03;5020698;28;20047;-94
2022/07/20 05:03:35;;;;;;;75.32;12.02;;;;;;;23.71;38.70;93711.25;5042000;28;20045;-94
2022/07/20 05:06:01;;;;;;;72.00;13.88;;;;;;;23.77;38.76;93716.63;5018994;28;20036;-95
2022/07/20 05:08:26;;;;;;;36.28;11.73;;;;;;;23.75;38.33;93711.66;5016555;28;20036;-95
2022/07/20 05:10:57;;;;;;;46.38;10.82;;;;;;;23.77;38.77;93713.88;5013031;28;20107;-93
2022/07/20 05:13:23;;;;;;;44.83;16.25;;;;;;;23.79;38.60;93720.34;5006893;28;20120;-90
2022/07/20 05:15:49;;;;;;;84.43;27.65;;;;;;;23.80;38.43;93712.81;5036303;28;20049;-91
2022/07/20 05:18:24;;;;;;;232.63;115.38;;;;;;;23.80;38.63;93708.03;5022848;28;20041;-92
2022/07/20 05:23:23;;;;;;;173.85;76.22;;;;;;;23.92;39.23;93717.50;5080609;22;20051;-92
2022/07/20 05:25:49;;;;;;;143.82;72.22;;;;;;;23.99;39.01;93713.31;5025132;28;20044;-91
2022/07/20 05:28:18;;;;;;;120.60;49.53;;;;;;;24.02;38.62;93715.00;5030290;28;20512;-89
2022/07/20 05:30:47;;;;;;;103.25;44.88;;;;;;;24.08;38.48;93715.59;5038461;28;20036;-89
2022/07/20 05:33:12;;;;;;;128.63;61.35;;;;;;;24.07;38.73;93716.13;5031226;28;20033;-92
2022/07/20 05:35:38;;;;;;;236.32;102.55;;;;;;;24.11;38.83;93705.47;5045146;28;20122;-93
2022/07/20 05:38:03;;;;;;;133.80;50.47;;;;;;;24.12;38.90;93699.41;5029846;28;20044;-93
2022/07/20 05:40:30;;;;;;;206.13;81.80;;;;;;;24.12;38.69;93710.47;5044332;28;20052;-91
2022/07/20 05:42:55;;;;;;;170.07;85.65;;;;;;;24.11;38.77;93708.97;5067085;28;20090;-91
2022/07/20 05:45:21;;;;;;;248.75;128.70;;;;;;;24.15;39.02;93692.81;5052604;28;20032;-92
2022/07/20 05:47:46;;;;;;;177.98;92.63;;;;;;;24.12;38.72;93710.47;5031755;28;20044;-90
2022/07/20 05:50:12;;;;;;;163.40;84.72;;;;;;;24.14;39.26;93704.41;5027805;28;20124;-90
2022/07/20 05:52:37;;;;;;;153.98;76.82;;;;;;;24.19;38.84;93712.56;5023240;28;20039;-90
2022/07/20 05:55:06;;;;;;;181.20;77.05;;;;;;;24.16;39.22;93710.88;5032178;28;20044;-93
2022/07/20 05:57:38;;;;;;;161.98;68.07;;;;;;;24.21;38.97;93706.50;5052674;28;20080;-93
2022/07/20 06:00:04;;;;;;;139.32;68.60;;;;;;;24.24;39.36;93711.69;5035530;28;20124;-91
2022/07/20 06:02:30;;;;;;;127.72;65.15;;;;;;;24.22;38.99;93705.94;5035742;28;20052;-93
2022/07/20 06:05:06;;;;;;;133.55;62.67;;;;;;;24.18;39.31;93711.06;5041417;28;20040;-94
2022/07/20 06:07:32;;;;;;;117.95;61.75;;;;;;;24.24;38.96;93711.69;5082144;28;20067;-93
2022/07/20 06:09:57;;;;;;;116.68;57.33;;;;;;;24.24;39.43;93714.47;5033491;28;20036;-93
2022/07/20 06:12:23;;;;;;;120.43;60.85;;;;;;;24.24;40.05;93716.47;5051777;28;20133;-91
2022/07/20 06:14:48;;;;;;;130.70;61.03;;;;;;;24.30;40.54;93714.28;5050319;28;20052;-92
2022/07/20 06:17:14;;;;;;;120.65;59.78;;;;;;;24.33;39.91;93713.22;5042742;28;20028;-93
2022/07/20 06:19:40;;;;;;;87.00;51.70;;;;;;;24.37;39.43;93712.88;5047689;28;20054;-91
2022/07/20 06:22:05;;;;;;;106.20;53.97;;;;;;;24.41;39.81;93716.78;5027408;28;20033;-92
2022/07/20 06:24:30;;;;;;;97.57;53.85;;;;;;;24.47;39.47;93709.06;5036015;28;20135;-87
2022/07/20 06:26:56;;;;;;;144.25;74.53;;;;;;;24.49;39.54;93720.31;5054555;28;20036;-92
2022/07/20 06:29:22;;;;;;;123.10;72.03;;;;;;;24.51;39.47;93714.25;5051723;28;20063;-93
2022/07/20 06:31:47;;;;;;;99.13;50.20;;;;;;;24.51;39.44;93714.97;5042107;28;20041;-94
2022/07/20 06:34:14;;;;;;;88.93;51.05;;;;;;;24.49;39.42;93717.53;5043265;28;20048;-92
2022/07/20 06:36:44;;;;;;;83.32;49.50;;;;;;;24.46;39.58;93715.91;5056204;28;20044;-90
2022/07/20 06:39:10;;;;;;;84.28;45.08;;;;;;;24.45;39.66;93714.41;5074059;28;20698;-93
2022/07/20 06:41:38;;;;;;;92.15;46.17;;;;;;;24.44;39.48;93720.47;5023750;28;20042;-93
2022/07/20 06:44:04;;;;;;;89.90;48.97;;;;;;;24.42;39.51;93717.53;5004236;28;20121;-93
2022/07/20 06:46:29;;;;;;;103.03;49.30;;;;;;;24.43;39.53;93719.75;5008083;28;20045;-93
2022/07/20 06:48:56;;;;;;;100.57;46.92;;;;;;;24.43;39.48;93719.00;5028480;28;20636;-94
2022/07/20 06:51:24;;;;;;;130.10;58.60;;;;;;;24.44;39.83;93714.94;4994340;28;20076;-94
2022/07/20 06:54:00;;;;;;;111.15;54.83;;;;;;;24.47;40.11;93719.38;5009607;28;20199;-95
2022/07/20 06:57:15;;;;;;;;;;;;;;;;;;;;;
2022/07/20 06:59:42;;;;;;;112.70;60.67;;;;;;;24.48;40.01;93726.38;4939755;28;20504;-95
2022/07/20 07:02:08;;;;;;;112.90;56.40;;;;;;;24.46;39.84;93726.22;4923761;29;20059;-93
2022/07/20 07:04:34;;;;;;;117.18;57.20;;;;;;;24.51;40.13;93722.53;4886594;29;20231;-92
2022/07/20 07:07:01;;;;;;;120.82;56.90;;;;;;;24.49;40.22;93719.56;4917582;29;20696;-94
2022/07/20 07:09:29;;;;;;;114.13;55.33;;;;;;;24.50;40.13;93726.56;4908849;29;20067;-94
2022/07/20 07:11:55;;;;;;;100.90;50.90;;;;;;;24.56;40.15;93727.91;4913299;28;20118;-93
2022/07/20 07:14:20;;;;;;;94.90;48.70;;;;;;;24.56;40.22;93732.69;4952044;28;20711;-91
2022/07/20 07:16:46;;;;;;;93.20;47.28;;;;;;;24.54;39.99;93724.22;4957441;28;20035;-94
2022/07/20 07:19:11;;;;;;;85.95;45.15;;;;;;;24.51;40.12;93728.81;4956662;28;20039;-93
2022/07/20 07:21:37;;;;;;;87.95;44.45;;;;;;;24.50;40.17;93730.09;4974413;28;20042;-93
2022/07/20 07:24:02;;;;;;;79.70;43.10;;;;;;;24.54;40.28;93730.47;4954974;28;20043;-94
2022/07/20 07:26:28;;;;;;;68.60;41.85;;;;;;;24.59;40.07;93732.34;4971806;28;20049;-93
2022/07/20 07:28:54;;;;;;;76.22;42.65;;;;;;;24.57;39.77;93729.41;4954521;28;20073;-93
2022/07/20 07:31:20;;;;;;;82.13;45.63;;;;;;;24.56;40.20;93722.38;5027716;28;20502;-93
2022/07/20 07:33:45;;;;;;;84.65;49.47;;;;;;;24.60;40.50;93727.56;5014155;28;20128;-91
2022/07/20 07:36:11;;;;;;;105.95;63.05;;;;;;;24.62;40.32;93718.75;4981126;28;20053;-90
2022/07/20 07:38:36;;;;;;;96.70;57.78;;;;;;;24.58;40.55;93724.59;5028949;28;20696;-91
2022/07/20 07:41:02;;;;;;;111.65;68.68;;;;;;;24.61;40.30;93718.00;5005247;28;20044;-93
2022/07/20 07:43:27;;;;;;;121.00;73.30;;;;;;;24.60;40.21;93728.31;4996421;28;20045;-93
2022/07/20 07:45:53;;;;;;;110.30;71.25;;;;;;;24.62;40.41;93718.75;4996587;28;20141;-94
2022/07/20 07:48:18;;;;;;;99.32;65.55;;;;;;;24.61;40.46;93726.28;4976776;28;20033;-91
2022/07/20 07:50:45;;;;;;;123.35;69.07;;;;;;;24.62;40.43;93730.53;5033721;28;20396;-91
2022/07/20 07:53:11;;;;;;;102.13;65.75;;;;;;;24.65;40.58;93726.69;5033958;28;20037;-92
2022/07/20 07:55:37;;;;;;;95.65;63.05;;;;;;;24.64;40.46;93722.44;5027544;28;20094;-92
2022/07/20 07:58:04;;;;;;;99.07;65.40;;;;;;;24.62;40.52;93727.03;5018750;28;20522;-93
2022/07/20 08:00:30;;;;;;;106.50;72.63;;;;;;;24.65;40.52;93723.91;5018495;28;20029;-93
2022/07/20 08:02:56;;;;;;;118.30;77.47;;;;;;;24.64;40.42;93725.22;5033452;28;20020;-91
2022/07/20 08:05:21;;;;;;;128.77;90.63;;;;;;;24.65;40.42;93728.72;5038010;28;20036;-92
2022/07/20 08:07:47;;;;;;;155.32;108.75;;;;;;;24.65;40.64;93723.91;5037298;28;20022;-94
2022/07/20 08:10:13;;;;;;;195.60;130.60;;;;;;;24.64;40.63;93719.69;5017461;28;20037;-93
2022/07/20 08:12:38;;;;;;;221.35;141.82;;;;;;;24.69;40.40;93726.31;5034817;28;20039;-91
2022/07/20 08:15:05;;;;;;;211.70;140.00;;;;;;;24.65;40.69;93723.19;5018307;28;20059;-93
2022/07/20 08:17:31;;;;;;;205.55;137.45;;;;;;;24.66;40.59;93722.63;5031823;28;20558;-92
2022/07/20 08:19:57;;;;;;;211.85;133.52;;;;;;;24.64;40.75;93713.41;5033774;28;20107;-93
2022/07/20 08:22:23;;;;;;;200.90;131.55;;;;;;;24.65;40.77;93723.19;5030386;28;20043;-93
2022/07/20 08:24:48;;;;;;;191.68;123.53;;;;;;;24.66;40.59;93722.63;5040740;28;20032;-94
2022/07/20 08:27:14;;;;;;;185.55;116.75;;;;;;;24.65;40.84;93720.41;5039492;28;20020;-92
2022/07/20 08:29:39;;;;;;;180.90;118.35;;;;;;;24.68;40.82;93713.81;5041942;28;20065;-94
2022/07/20 08:32:05;;;;;;;199.45;124.95;;;;;;;24.72;41.02;93716.94;5057318;28;20024;-92
2022/07/20 08:34:31;;;;;;;209.98;129.10;;;;;;;24.68;40.80;93724.84;5041434;28;20044;-95
2022/07/20 08:36:56;;;;;;;201.48;134.10;;;;;;;24.72;40.91;93723.19;5074824;28;20040;-93
2022/07/20 08:39:22;;;;;;;197.88;135.18;;;;;;;24.70;40.95;93722.25;5040398;28;20744;-91
2022/07/20 08:41:47;;;;;;;208.15;141.50;;;;;;;24.70;41.00;93719.50;5056508;28;20039;-93
2022/07/20 08:44:13;;;;;;;218.95;145.82;;;;;;;24.68;41.12;93722.84;5037026;28;20041;-91
2022/07/20 08:46:38;;;;;;;234.20;157.73;;;;;;;24.70;40.87;93725.78;5053415;28;20045;-92
2022/07/20 08:49:04;;;;;;;221.02;154.68;;;;;;;24.67;41.13;93724.13;5022122;28;20090;-93
2022/07/20 08:51:38;;;;;;;220.65;152.05;;;;;;;24.66;41.08;93739.22;5056519;28;20032;-93
2022/07/20 08:54:03;;;;;;;223.20;145.52;;;;;;;24.72;40.94;93730.75;5039492;28;20451;-91
2022/07/20 08:56:29;;;;;;;195.40;132.20;;;;;;;24.78;40.88;93731.34;5037414;28;20036;-91
2022/07/20 08:58:55;;;;;;;186.82;125.35;;;;;;;24.85;40.92;93738.94;5039821;28;20032;-93
2022/07/20 09:01:20;;;;;;;187.13;128.00;;;;;;;24.88;41.27;93729.56;5056065;28;20044;-92
2022/07/20 09:04:06;;;;;;;163.88;110.95;;;;;;;24.90;40.83;93724.22;5023741;28;20041;-91
2022/07/20 09:06:32;;;;;;;157.95;110.68;;;;;;;24.89;41.02;93729.03;5037262;28;20047;-91
2022/07/20 09:09:05;;;;;;;163.90;105.97;;;;;;;24.87;41.03;93730.84;5039675;28;20036;-92
2022/07/20 09:11:32;;;;;;;153.95;101.68;;;;;;;24.89;41.31;93728.28;5039803;28;20100;-92
2022/07/20 09:13:58;;;;;;;157.95;101.68;;;;;;;24.86;41.18;93729.38;5040618;28;20040;-93
2022/07/20 09:16:32;;;;;;;155.32;107.68;;;;;;;24.85;41.24;93714.06;5044432;28;20077;-93
2022/07/20 09:18:57;;;;;;;160.27;115.22;;;;;;;24.84;41.17;93724.38;5031622;28;20119;-93
2022/07/20 09:21:30;;;;;;;183.50;128.07;;;;;;;24.80;41.32;93717.72;5034684;28;20491;-95
2022/07/20 09:23:56;;;;;;;197.30;131.02;;;;;;;24.82;41.48;93718.66;5047447;28;20047;-95
2022/07/20 09:26:36;;;;;;;227.75;141.25;;;;;;;24.80;41.56;93714.97;5051141;28;20068;-94
2022/07/20 09:29:04;;;;;;;236.65;146.50;;;;;;;24.79;41.56;93716.25;5064360;28;20040;-94
2022/07/20 09:31:34;;;;;;;267.05;176.35;;;;;;;24.79;41.55;93719.75;5043309;28;20538;-95
2022/07/20 09:34:15;;;;;;;265.55;170.98;;;;;;;24.79;41.59;93714.22;5043455;28;20028;-94
2022/07/20 09:36:45;;;;;;;307.15;201.05;;;;;;;24.84;41.72;93718.13;5060875;28;20032;-92
2022/07/20 09:39:27;;;;;;;304.38;201.48;;;;;;;24.81;41.61;93714.41;5040743;28;20036;-93
2022/07/20 09:42:04;;;;;;;304.88;203.43;;;;;;;24.82;41.68;93717.91;5076349;28;20074;-93
2022/07/20 09:44:49;;;;;;;288.85;192.40;;;;;;;24.80;41.69;93712.19;5020084;23;20216;-96
2022/07/20 09:47:34;;;;;;;291.08;185.30;;;;;;;24.79;41.78;93725.28;4995625;28;20057;-95
2022/07/20 09:50:03;;;;;;;304.25;178.07;;;;;;;24.86;41.65;93730.13;4984578;28;20072;-95
2022/07/20 09:52:28;;;;;;;288.90;165.63;;;;;;;24.79;41.87;93730.81;4983085;28;20050;-90
2022/07/20 09:54:54;;;;;;;283.17;159.65;;;;;;;24.81;41.91;93728.25;4963839;28;20100;-91
2022/07/20 09:57:19;;;;;;;239.00;147.10;;;;;;;24.83;41.84;93722.91;4969904;28;20041;-91
2022/07/20 09:59:50;;;;;;;255.80;142.30;;;;;;;24.85;42.13;93722.34;4985234;28;20057;-94
2022/07/20 10:02:21;;;;;;;226.35;136.23;;;;;;;24.84;41.88;93731.94;4969619;28;20060;-95
2022/07/20 10:05:07;;;;;;;217.05;131.70;;;;;;;24.79;42.05;93727.31;5009753;28;20049;-96
2022/07/20 10:17:48;;;;;;;172.50;109.82;;;;;;;24.80;42.02;93718.47;5105919;28;20032;-90
2022/07/20 10:29:00;;;;;;;;;;;;;;;;;;;;;
2022/07/20 10:31:29;;;;;;;145.85;98.45;;;;;;;24.77;41.94;93725.06;4983212;28;20127;-90
2022/07/20 10:33:57;;;;;;;141.55;93.20;;;;;;;24.75;42.09;93716.59;5050723;28;20179;-91
2022/07/20 10:36:43;;;;;;;139.90;92.97;;;;;;;24.77;42.23;93721.56;5030510;28;20571;-92
2022/07/20 10:40:16;;;;;;;135.98;88.22;;;;;;;24.75;42.37;93718.59;5023166;28;20071;-92
2022/07/20 10:43:16;;;;;;;121.40;81.75;;;;;;;24.76;42.12;93714.56;4995341;28;20054;-91
2022/07/20 10:45:46;;;;;;;121.30;82.65;;;;;;;24.77;42.30;93718.81;4980308;23;20060;-93
2022/07/20 10:48:12;;;;;;;119.40;82.43;;;;;;;24.76;42.24;93720.84;5056254;28;20076;-93
2022/07/20 10:50:42;;;;;;;113.82;79.00;;;;;;;24.75;42.22;93724.13;5059454;28;20036;-92
2022/07/20 10:53:28;;;;;;;113.32;73.47;;;;;;;24.80;42.09;93715.69;5006164;28;20492;-93
2022/07/20 10:55:55;;;;;;;115.57;78.60;;;;;;;24.79;42.39;93716.97;5000748;28;20456;-93
2022/07/20 10:58:23;;;;;;;180.32;96.30;;;;;;;24.78;42.44;93726.56;5026222;28;20033;-93
2022/07/20 11:00:53;;;;;;;335.67;112.72;;;;;;;24.82;42.36;93726.22;5060900;28;20074;-93
2022/07/20 11:03:21;;;;;;;218.90;83.57;;;;;;;24.80;42.32;93724.00;5075456;23;20046;-93
2022/07/20 11:05:49;;;;;;;232.82;86.82;;;;;;;24.79;42.34;93716.97;5092673;28;20040;-93
2022/07/20 11:08:17;;;;;;;294.35;98.22;;;;;;;24.83;42.12;93720.13;5081476;28;20028;-93
2022/07/20 11:10:52;;;;;;;238.95;85.68;;;;;;;24.81;42.30;93713.66;5082965;28;20066;-93
2022/07/20 11:13:34;;;;;;;225.45;86.80;;;;;;;24.82;42.39;93712.38;5118683;22;20050;-94
2022/07/20 11:16:04;;;;;;;293.15;115.75;;;;;;;24.83;42.21;93709.06;5088008;23;20110;-93
2022/07/20 11:18:32;;;;;;;248.20;95.45;;;;;;;24.80;42.33;93712.94;4958675;28;20421;-92
2022/07/20 11:21:40;;;;;;;243.20;91.88;;;;;;;24.77;42.30;93713.28;4977494;28;20038;-92
2022/07/20 11:24:26;;;;;;;244.80;89.18;;;;;;;24.79;42.68;93713.47;4968129;28;20039;-91
2022/07/20 11:26:53;;;;;;;326.77;117.75;;;;;;;24.82;42.14;93718.66;4963193;28;20046;-94
2022/07/20 11:29:18;;;;;;;292.90;112.00;;;;;;;24.79;42.15;93711.44;4947935;28;20034;-96
2022/07/20 11:31:47;;;;;;;289.35;108.32;;;;;;;24.83;42.25;93711.84;5001596;23;20056;-93
2022/07/20 11:34:20;;;;;;;252.98;98.13;;;;;;;24.82;42.19;93715.16;5060500;23;20503;-92
2022/07/20 11:37:26;;;;;;;;;;;;;;;;;;;;;
2022/07/20 11:39:53;;;;;;;209.18;94.90;;;;;;;24.80;42.28;93707.41;5733555;22;20804;-92
2022/07/20 11:42:21;;;;;;;197.45;91.05;;;;;;;24.81;42.25;93703.34;5057944;23;20041;-94
2022/07/20 11:45:02;;;;;;;507.90;332.05;;;;;;;24.79;42.39;93705.19;5046736;28;20105;-93